Time;durP1;ratioP1;P1;durP2;ratioP2;P2;SDS_P1;SDS_P2;PMS_P1;PMS_P2;Temp;Humidity;BMP_temperature;BMP_pressure;BME280_temperature;BME280_humidity;BME280_pressure;Samples;Min_cycle;Max_cycle;Signal;HPM_P1;HPM_P2
2022/08/03 00:00:54;;;;;;;5.28;2.50;;;21.30;99.90;;;;;;12438635;28;20046;-84
2022/08/03 00:06:56;;;;;;;5.32;2.63;;;21.30;99.90;;;;;;12423493;28;20208;-85
2022/08/03 00:12:58;;;;;;;4.70;2.53;;;21.30;99.90;;;;;;12427741;28;20046;-84
2022/08/03 00:19:00;;;;;;;5.70;2.97;;;21.70;99.90;;;;;;12420732;28;20050;-85
2022/08/03 00:25:03;;;;;;;7.33;2.70;;;21.60;99.90;;;;;;12427046;28;20046;-85
2022/08/03 00:31:06;;;;;;;4.68;2.83;;;21.40;99.90;;;;;;12433978;28;20201;-85
2022/08/03 00:37:07;;;;;;;5.93;3.33;;;21.20;99.90;;;;;;12437883;28;20073;-85
2022/08/03 00:43:10;;;;;;;5.10;2.97;;;21.10;99.90;;;;;;12422557;28;20061;-85
2022/08/03 00:49:12;;;;;;;5.07;3.25;;;21.00;99.90;;;;;;12419514;28;20081;-84
2022/08/03 00:55:14;;;;;;;5.65;3.30;;;20.90;99.90;;;;;;12389904;28;20552;-85
2022/08/03 01:01:16;;;;;;;5.60;3.22;;;20.80;99.90;;;;;;12383197;28;20108;-85
2022/08/03 01:07:46;;;;;;;5.00;3.67;;;20.70;99.90;;;;;;12389034;28;20121;-84
2022/08/03 01:14:12;;;;;;;3.67;2.97;;;20.60;99.90;;;;;;12374030;28;20144;-85
2022/08/03 01:20:20;;;;;;;6.05;3.65;;;20.70;99.90;;;;;;12387823;28;20061;-85
2022/08/03 01:26:34;;;;;;;5.68;3.25;;;20.60;99.90;;;;;;12403499;28;20096;-84
2022/08/03 01:32:59;;;;;;;;;;;20.50;99.90;;;;;;12389145;28;20100;-85
2022/08/03 01:39:08;;;;;;;5.50;3.80;;;20.50;99.90;;;;;;12375353;28;19925;-84
2022/08/03 01:45:12;;;;;;;4.88;3.40;;;20.50;99.90;;;;;;12407539;28;20061;-85
2022/08/03 01:51:17;;;;;;;5.93;3.70;;;20.40;99.90;;;;;;12394925;28;20058;-85
2022/08/03 01:57:19;;;;;;;5.43;3.90;;;20.20;99.90;;;;;;12426455;28;20394;-84
2022/08/03 02:03:23;;;;;;;4.90;3.87;;;20.20;99.90;;;;;;12421882;28;20058;-84
2022/08/03 02:09:26;;;;;;;7.47;4.40;;;20.00;99.90;;;;;;12430277;28;20474;-84
2022/08/03 02:15:29;;;;;;;5.65;4.35;;;20.10;99.90;;;;;;12455972;28;20108;-84
2022/08/03 02:21:35;;;;;;;4.90;3.63;;;20.00;99.90;;;;;;12421690;28;20046;-84
2022/08/03 02:28:09;;;;;;;5.80;4.57;;;20.00;99.90;;;;;;12443333;28;20042;-84
2022/08/03 02:34:14;;;;;;;6.43;4.13;;;19.90;99.90;;;;;;12426962;28;20088;-84
2022/08/03 02:40:19;;;;;;;5.65;3.72;;;19.90;99.90;;;;;;12435946;28;20062;-84
2022/08/03 02:46:27;;;;;;;9.55;4.60;;;19.80;99.90;;;;;;12427418;28;20498;-84
2022/08/03 02:52:32;;;;;;;6.63;4.90;;;19.70;99.90;;;;;;12416310;28;20639;-84
2022/08/03 02:58:34;;;;;;;6.75;4.63;;;19.60;99.90;;;;;;12415176;28;20128;-84
2022/08/03 03:04:36;;;;;;;6.95;4.95;;;19.50;99.90;;;;;;12420591;28;20046;-84
2022/08/03 03:11:00;;;;;;;6.32;4.57;;;19.50;99.90;;;;;;12422029;28;20042;-84
2022/08/03 03:17:02;;;;;;;9.00;5.20;;;19.40;99.90;;;;;;12421508;28;20180;-84
2022/08/03 03:23:05;;;;;;;9.30;5.18;;;19.30;99.90;;;;;;12414344;28;20058;-84
2022/08/03 03:29:08;;;;;;;7.03;5.22;;;19.20;99.90;;;;;;12414387;28;20041;-84
2022/08/03 03:35:12;;;;;;;9.95;5.30;;;19.20;99.90;;;;;;12413988;28;20096;-84
2022/08/03 03:41:14;;;;;;;9.68;5.68;;;19.10;99.90;;;;;;12419951;28;20129;-83
2022/08/03 03:47:16;;;;;;;10.10;5.63;;;19.20;99.90;;;;;;12429213;28;20058;-84
2022/08/03 03:53:33;;;;;;;8.25;5.35;;;19.10;99.90;;;;;;12405397;28;20414;-83
2022/08/03 03:59:39;;;;;;;8.27;5.45;;;19.10;99.90;;;;;;12426178;28;20469;-84
2022/08/03 04:12:04;;;;;;;9.88;5.38;;;18.90;99.90;;;;;;12424945;28;20498;-83
2022/08/03 04:18:10;;;;;;;7.15;5.40;;;18.90;99.90;;;;;;12420859;28;20145;-84
2022/08/03 04:24:14;;;;;;;9.30;5.53;;;18.90;99.90;;;;;;12421984;28;20184;-84
2022/08/03 04:30:16;;;;;;;6.40;4.95;;;18.90;99.90;;;;;;12425132;28;20120;-84
2022/08/03 04:36:21;;;;;;;11.60;5.32;;;19.00;99.90;;;;;;12419060;28;20168;-84
2022/08/03 04:42:24;;;;;;;7.50;5.13;;;19.10;99.90;;;;;;12423855;28;20128;-83
2022/08/03 04:48:27;;;;;;;8.43;4.82;;;19.10;99.90;;;;;;12422650;28;20181;-84
2022/08/03 04:54:29;;;;;;;6.40;4.80;;;19.00;99.90;;;;;;12421528;28;20042;-84
2022/08/03 05:00:31;;;;;;;8.63;5.30;;;19.10;99.90;;;;;;12436671;28;20095;-84
2022/08/03 05:06:33;;;;;;;7.55;4.35;;;19.10;99.90;;;;;;12431744;28;20148;-84
2022/08/03 05:12:35;;;;;;;5.83;4.60;;;19.10;99.90;;;;;;12437476;28;20050;-84
2022/08/03 05:18:37;;;;;;;6.45;5.03;;;19.10;99.90;;;;;;12421118;28;20508;-85
2022/08/03 05:24:39;;;;;;;6.40;4.90;;;19.10;99.90;;;;;;12421040;28;20096;-84
2022/08/03 05:30:41;;;;;;;6.38;4.50;;;19.00;99.90;;;;;;12420750;28;20096;-85
2022/08/03 05:36:43;;;;;;;6.28;4.38;;;19.00;99.90;;;;;;12415568;28;20123;-84
2022/08/03 05:42:44;;;;;;;6.20;4.82;;;19.10;99.90;;;;;;12410522;28;20525;-84
2022/08/03 05:48:46;;;;;;;8.27;5.38;;;19.20;99.90;;;;;;12416878;28;20095;-84
2022/08/03 05:54:48;;;;;;;7.45;4.55;;;19.30;99.90;;;;;;12335968;28;20047;-85
2022/08/03 06:00:58;;;;;;;9.30;4.72;;;19.40;99.90;;;;;;12337433;28;20073;-86
2022/08/03 06:07:00;;;;;;;7.07;4.20;;;19.50;99.90;;;;;;12348073;28;20131;-84
2022/08/03 06:13:01;;;;;;;8.65;4.03;;;19.60;99.90;;;;;;12348041;28;20091;-85
2022/08/03 06:19:03;;;;;;;3.88;2.28;;;19.70;99.90;;;;;;12336301;28;20057;-85
2022/08/03 06:25:06;;;;;;;4.22;1.90;;;19.90;99.90;;;;;;12337042;28;20190;-83
2022/08/03 06:31:13;;;;;;;4.68;1.83;;;20.60;99.90;;;;;;12341362;28;20066;-84
2022/08/03 06:37:14;;;;;;;4.40;1.95;;;21.10;99.90;;;;;;12338602;28;20117;-84
2022/08/03 06:43:16;;;;;;;8.02;1.88;;;21.40;99.90;;;;;;12334130;28;20141;-85
2022/08/03 06:49:18;;;;;;;3.70;1.83;;;21.60;99.90;;;;;;12338289;28;20109;-84
2022/08/03 06:55:20;;;;;;;4.38;1.65;;;21.80;99.90;;;;;;12373935;28;20042;-86
2022/08/03 07:01:22;;;;;;;3.40;1.88;;;22.00;99.90;;;;;;12386706;28;20533;-86
2022/08/03 07:07:25;;;;;;;4.53;1.83;;;22.40;99.90;;;;;;12378204;28;20118;-85
2022/08/03 07:13:27;;;;;;;4.25;1.58;;;22.60;99.90;;;;;;12386898;28;20100;-84
2022/08/03 07:19:29;;;;;;;6.97;1.52;;;22.80;99.90;;;;;;12382414;28;20058;-85
2022/08/03 07:25:31;;;;;;;6.13;1.67;;;23.00;99.90;;;;;;12383594;28;20034;-85
2022/08/03 07:31:33;;;;;;;4.25;1.55;;;23.20;99.90;;;;;;12422014;28;20060;-85
2022/08/03 07:37:35;;;;;;;6.07;1.50;;;23.40;99.90;;;;;;12386359;28;20057;-85
2022/08/03 07:43:37;;;;;;;5.22;1.58;;;23.40;99.90;;;;;;12396730;28;20157;-84
2022/08/03 07:49:40;;;;;;;4.70;1.58;;;23.50;99.90;;;;;;12389003;28;20617;-86
2022/08/03 07:55:42;;;;;;;2.72;1.38;;;23.80;99.90;;;;;;12431522;28;20081;-86
2022/08/03 08:01:44;;;;;;;6.28;1.42;;;23.90;99.90;;;;;;12425213;28;20595;-85
2022/08/03 08:07:46;;;;;;;6.13;1.70;;;24.00;99.90;;;;;;12424918;28;20065;-85
2022/08/03 08:13:52;;;;;;;5.15;1.75;;;24.10;99.90;;;;;;12421373;28;20437;-86
2022/08/03 08:19:54;;;;;;;5.95;1.60;;;24.40;99.90;;;;;;12445900;28;20033;-86
2022/08/03 08:25:56;;;;;;;6.55;1.80;;;24.50;99.90;;;;;;12427438;28;20497;-85
2022/08/03 08:31:57;;;;;;;6.95;1.60;;;24.80;99.90;;;;;;12421665;28;20103;-84
2022/08/03 08:38:00;;;;;;;6.55;1.52;;;24.80;99.90;;;;;;12420112;28;20073;-86
2022/08/03 08:44:09;;;;;;;2.05;1.38;;;25.00;99.90;;;;;;12422836;28;20057;-86
2022/08/03 08:50:11;;;;;;;5.13;1.55;;;25.20;99.90;;;;;;12417914;28;20081;-87
2022/08/03 08:56:31;;;;;;;3.20;1.77;;;25.50;99.90;;;;;;12424032;28;20058;-85
2022/08/03 09:02:33;;;;;;;6.25;2.30;;;25.80;99.90;;;;;;12441263;28;20150;-85
2022/08/03 09:08:35;;;;;;;5.82;1.40;;;26.00;99.90;;;;;;12418437;28;20050;-87
2022/08/03 09:14:37;;;;;;;5.25;1.60;;;26.00;99.90;;;;;;12411786;28;20104;-86
2022/08/03 09:21:24;;;;;;;4.38;1.25;;;26.30;99.90;;;;;;12418881;28;20519;-85
2022/08/03 09:27:45;;;;;;;5.95;1.55;;;26.70;99.90;;;;;;12435835;28;20049;-86
2022/08/03 09:33:48;;;;;;;5.57;1.55;;;27.00;99.90;;;;;;12422685;28;20498;-86
2022/08/03 09:39:49;;;;;;;2.65;1.13;;;27.10;99.90;;;;;;12414366;28;20096;-86
2022/08/03 09:46:02;;;;;;;3.60;1.50;;;27.20;99.90;;;;;;12413752;28;20042;-86
2022/08/03 09:52:18;;;;;;;4.80;1.90;;;27.10;99.90;;;;;;12421232;28;20070;-87
2022/08/03 09:58:47;;;;;;;6.93;1.60;;;27.40;99.90;;;;;;12434549;28;20053;-86
2022/08/03 10:04:51;;;;;;;7.18;1.80;;;27.40;99.90;;;;;;12413792;28;20041;-86
2022/08/03 10:10:53;;;;;;;8.05;1.70;;;27.40;99.90;;;;;;12421089;28;20050;-84
2022/08/03 10:16:55;;;;;;;5.53;2.17;;;27.80;99.90;;;;;;12428353;28;20050;-86
2022/08/03 10:22:58;;;;;;;4.33;1.70;;;27.90;99.90;;;;;;12418371;28;20829;-85
2022/08/03 10:29:02;;;;;;;6.47;1.95;;;28.00;99.90;;;;;;12422195;28;20486;-86
2022/08/03 10:35:15;;;;;;;5.75;2.03;;;27.80;99.90;;;;;;12419502;28;20141;-86
2022/08/03 10:41:25;;;;;;;7.32;2.25;;;28.20;99.90;;;;;;12404871;28;20336;-85
2022/08/03 10:47:28;;;;;;;5.32;1.38;;;28.30;99.90;;;;;;12421772;28;20053;-85
2022/08/03 10:53:43;;;;;;;4.78;1.88;;;28.40;99.90;;;;;;12424453;28;20053;-86
2022/08/03 10:59:57;;;;;;;6.03;1.85;;;28.70;99.90;;;;;;12435076;28;20050;-86
2022/08/03 11:06:17;;;;;;;4.18;1.80;;;28.50;99.90;;;;;;12415829;28;20050;-87
2022/08/03 11:12:21;;;;;;;5.70;1.70;;;28.60;99.90;;;;;;12412889;28;20425;-86
2022/08/03 11:18:32;;;;;;;3.30;1.60;;;28.70;99.90;;;;;;12425264;28;20050;-85
2022/08/03 11:24:41;;;;;;;4.15;1.63;;;28.70;99.90;;;;;;12418826;28;20494;-87
2022/08/03 11:30:43;;;;;;;9.48;2.20;;;28.80;99.90;;;;;;12413189;28;20053;-85
2022/08/03 11:37:23;;;;;;;4.80;1.87;;;29.10;99.90;;;;;;12411688;28;20541;-86
2022/08/03 11:43:29;;;;;;;2.78;1.20;;;29.60;99.90;;;;;;12407322;28;20727;-87
2022/08/03 11:49:32;;;;;;;5.63;1.40;;;29.90;99.90;;;;;;12416352;28;20072;-86
2022/08/03 11:55:34;;;;;;;5.22;1.38;;;29.90;99.90;;;;;;12423398;28;20103;-87
2022/08/03 12:01:39;;;;;;;6.82;1.33;;;30.10;99.90;;;;;;12411011;28;20602;-87
2022/08/03 12:07:45;;;;;;;3.45;1.50;;;29.90;99.90;;;;;;12394886;28;20089;-86
2022/08/03 12:14:06;;;;;;;5.32;1.30;;;30.10;99.90;;;;;;12409602;28;20410;-86
2022/08/03 12:20:31;;;;;;;4.07;1.40;;;29.80;99.90;;;;;;12426468;28;20050;-86
2022/08/03 12:26:50;;;;;;;5.80;1.80;;;29.90;99.90;;;;;;12403997;28;20049;-86
2022/08/03 12:33:21;;;;;;;6.90;1.60;;;30.50;99.90;;;;;;12422449;28;20521;-86
2022/08/03 12:39:25;;;;;;;6.32;1.60;;;30.40;99.90;;;;;;12407144;28;20057;-86
2022/08/03 12:45:30;;;;;;;5.65;1.65;;;30.80;99.90;;;;;;12411005;28;20050;-87
2022/08/03 12:51:35;;;;;;;5.50;1.38;;;31.00;99.90;;;;;;12410116;28;20112;-87
2022/08/03 12:57:42;;;;;;;3.53;1.50;;;30.90;99.90;;;;;;12408882;28;20050;-87
2022/08/03 13:03:48;;;;;;;7.68;1.52;;;31.20;99.90;;;;;;12412226;28;20475;-87
2022/08/03 13:09:55;;;;;;;4.28;1.40;;;31.50;99.90;;;;;;12404931;28;20088;-87
2022/08/03 13:15:56;;;;;;;6.22;2.15;;;31.70;99.90;;;;;;12423509;28;20080;-86
2022/08/03 13:21:58;;;;;;;4.38;1.77;;;31.70;99.90;;;;;;12437667;28;20175;-86
2022/08/03 13:28:05;;;;;;;8.10;1.80;;;31.80;99.90;;;;;;12398186;28;20061;-86
2022/08/03 13:34:10;;;;;;;3.20;1.35;;;31.90;99.90;;;;;;12399223;28;20069;-87
2022/08/03 13:40:12;;;;;;;3.40;1.50;;;32.10;99.90;;;;;;12399285;28;20100;-87
2022/08/03 13:46:15;;;;;;;4.65;1.85;;;31.80;99.90;;;;;;12398612;28;20065;-86
2022/08/03 13:52:17;;;;;;;3.92;1.90;;;31.70;99.90;;;;;;12401027;28;20050;-87
2022/08/03 13:58:19;;;;;;;5.72;1.70;;;32.00;99.90;;;;;;12410183;28;20061;-87
2022/08/03 14:04:21;;;;;;;9.13;1.80;;;31.70;99.90;;;;;;12413731;28;20096;-87
2022/08/03 14:10:23;;;;;;;4.18;1.60;;;31.60;99.90;;;;;;12419217;28;20052;-86
2022/08/03 14:16:25;;;;;;;6.03;1.85;;;32.00;99.90;;;;;;12414842;28;20042;-86
2022/08/03 14:22:27;;;;;;;3.92;1.60;;;31.80;99.90;;;;;;12416842;28;20050;-87
2022/08/03 14:28:29;;;;;;;4.35;1.80;;;31.90;99.90;;;;;;12406873;28;20553;-87
2022/08/03 14:34:31;;;;;;;;;;;31.50;99.90;;;;;;12396114;28;20062;-86
2022/08/03 14:40:33;;;;;;;4.60;1.80;;;31.40;99.90;;;;;;12401828;28;19925;-86
2022/08/03 14:46:35;;;;;;;5.85;1.90;;;31.50;99.90;;;;;;12400668;28;20042;-87
2022/08/03 14:52:37;;;;;;;;;;;31.50;99.90;;;;;;12419384;28;20061;-87
2022/08/03 14:58:39;;;;;;;5.38;2.08;;;31.40;99.90;;;;;;12405702;28;19980;-87
2022/08/03 15:04:40;;;;;;;4.88;1.75;;;31.60;99.90;;;;;;12393917;28;20053;-87
2022/08/03 15:10:42;;;;;;;4.68;1.80;;;31.30;99.90;;;;;;12416991;28;20133;-86
2022/08/03 15:16:46;;;;;;;3.88;1.60;;;31.50;99.90;;;;;;12415794;28;20085;-88
2022/08/03 15:22:48;;;;;;;4.90;1.65;;;31.70;99.90;;;;;;12393971;28;20045;-86
2022/08/03 15:28:50;;;;;;;6.25;1.60;;;31.90;99.90;;;;;;12437502;28;20174;-86
2022/08/03 15:34:52;;;;;;;;;;;32.10;99.90;;;;;;12413971;28;20069;-87
2022/08/03 15:40:54;;;;;;;9.87;3.10;;;32.00;99.90;;;;;;12395893;28;19922;-86
2022/08/03 15:46:56;;;;;;;7.13;2.83;;;31.70;99.90;;;;;;12400470;28;20220;-87
2022/08/03 15:52:57;;;;;;;5.72;2.03;;;31.50;99.90;;;;;;12410311;28;20103;-87
2022/08/03 15:58:59;;;;;;;7.63;2.47;;;31.50;99.90;;;;;;12411069;28;20062;-87
2022/08/03 16:05:13;;;;;;;10.73;5.25;;;31.90;99.90;;;;;;12393922;28;20061;-87
2022/08/03 16:11:15;;;;;;;14.80;7.70;;;32.00;99.90;;;;;;12407517;28;20778;-87
2022/08/03 16:17:17;;;;;;;14.38;8.50;;;31.90;99.90;;;;;;12436534;28;20171;-87
2022/08/03 16:23:19;;;;;;;;;;;31.50;99.90;;;;;;12419708;28;20049;-87
2022/08/03 16:29:20;;;;;;;5.33;2.43;;;31.40;99.90;;;;;;12414933;28;20023;-87
2022/08/03 16:35:24;;;;;;;13.00;2.58;;;31.30;99.90;;;;;;12419794;28;20414;-87
2022/08/03 16:41:26;;;;;;;7.15;2.25;;;31.40;99.90;;;;;;12407756;28;20050;-87
2022/08/03 16:47:47;;;;;;;52.85;26.10;;;31.60;99.90;;;;;;12421185;28;20057;-87
2022/08/03 16:54:06;;;;;;;4.35;1.70;;;31.80;99.90;;;;;;12401825;28;20062;-87
2022/08/03 17:00:14;;;;;;;5.72;1.73;;;31.90;99.90;;;;;;12401872;28;20391;-88
2022/08/03 17:06:38;;;;;;;8.68;2.10;;;32.00;99.90;;;;;;12407412;28;20046;-87
2022/08/03 17:12:46;;;;;;;6.50;1.80;;;31.80;99.90;;;;;;12396799;28;20046;-87
2022/08/03 17:18:55;;;;;;;3.97;1.50;;;31.40;99.90;;;;;;12409668;28;20088;-87
2022/08/03 17:25:01;;;;;;;8.02;1.70;;;31.30;99.90;;;;;;12405748;28;20049;-87
2022/08/03 17:31:16;;;;;;;7.17;1.70;;;31.60;99.90;;;;;;12395562;28;20588;-87
2022/08/03 17:37:31;;;;;;;8.55;1.98;;;31.50;99.90;;;;;;12411662;28;20058;-87
2022/08/03 17:43:53;;;;;;;5.95;1.35;;;31.30;99.90;;;;;;12400901;28;20096;-87
2022/08/03 17:50:15;;;;;;;;;;;31.30;99.90;;;;;;12402497;28;20053;-87
2022/08/03 17:56:39;;;;;;;4.55;1.85;;;31.30;99.90;;;;;;12391324;28;19925;-87
2022/08/03 18:03:14;;;;;;;9.20;1.40;;;31.40;99.90;;;;;;12417026;28;20069;-87
2022/08/03 18:09:18;;;;;;;10.77;1.77;;;31.50;99.90;;;;;;12396196;28;20481;-87
2022/08/03 18:15:56;;;;;;;4.50;1.50;;;31.30;99.90;;;;;;12411953;28;20065;-87
2022/08/03 18:21:58;;;;;;;6.90;1.88;;;31.00;99.90;;;;;;12407976;28;20049;-87
2022/08/03 18:28:07;;;;;;;10.23;2.17;;;30.50;99.90;;;;;;12421701;28;20628;-87
2022/08/03 18:34:12;;;;;;;13.18;6.97;;;30.00;99.90;;;;;;12417641;28;20084;-87
2022/08/03 18:40:35;;;;;;;8.93;1.67;;;29.70;99.90;;;;;;12419678;28;20049;-87
2022/08/03 18:47:02;;;;;;;10.18;2.20;;;29.40;99.90;;;;;;12416823;28;20437;-87
2022/08/03 18:53:40;;;;;;;5.85;1.80;;;29.20;99.90;;;;;;12402692;28;20081;-87
2022/08/03 19:00:13;;;;;;;13.38;1.98;;;29.10;99.90;;;;;;12422366;28;20038;-87
2022/08/03 19:06:19;;;;;;;6.85;1.40;;;28.70;99.90;;;;;;12412654;28;20061;-87
2022/08/03 19:12:31;;;;;;;4.93;1.60;;;28.40;99.90;;;;;;12397826;28;20414;-86
2022/08/03 19:18:41;;;;;;;6.28;1.48;;;28.10;99.90;;;;;;12428800;28;20046;-87
2022/08/03 19:24:45;;;;;;;7.05;1.90;;;27.80;99.90;;;;;;12389423;28;20137;-87
2022/08/03 19:30:47;;;;;;;6.43;1.98;;;27.60;99.90;;;;;;12400526;28;20479;-86
2022/08/03 19:36:56;;;;;;;4.82;1.60;;;27.30;99.90;;;;;;12413825;28;20030;-87
2022/08/03 19:43:07;;;;;;;3.75;1.35;;;27.10;99.90;;;;;;12391792;28;20506;-86
2022/08/03 19:49:14;;;;;;;5.03;1.60;;;26.80;99.90;;;;;;12406977;28;20061;-87
2022/08/03 19:55:17;;;;;;;6.88;1.60;;;26.60;99.90;;;;;;12404286;28;20177;-86
2022/08/03 20:01:19;;;;;;;8.20;2.05;;;26.30;99.90;;;;;;12408820;28;20085;-87
2022/08/03 20:07:22;;;;;;;;;;;26.20;99.90;;;;;;12408754;28;20054;-87
2022/08/03 20:13:24;;;;;;;7.88;1.60;;;25.90;99.90;;;;;;12404344;28;19975;-87
2022/08/03 20:19:29;;;;;;;4.35;1.67;;;25.80;99.90;;;;;;12408005;28;20514;-85
2022/08/03 20:25:40;;;;;;;5.13;1.80;;;25.80;99.90;;;;;;12398530;28;20046;-87
2022/08/03 20:32:00;;;;;;;7.90;1.90;;;25.60;99.90;;;;;;12402499;28;20049;-86
2022/08/03 20:38:02;;;;;;;8.13;1.92;;;25.50;99.90;;;;;;12402494;28;20050;-86
2022/08/03 20:44:05;;;;;;;5.40;1.80;;;25.40;99.90;;;;;;12423652;28;20042;-86
2022/08/03 20:50:08;;;;;;;4.82;1.70;;;25.40;99.90;;;;;;12408233;28;20547;-85
2022/08/03 20:56:12;;;;;;;7.38;1.90;;;25.20;99.90;;;;;;12410749;28;20089;-86
2022/08/03 21:02:15;;;;;;;;;;;25.20;99.90;;;;;;12407184;28;20053;-85
2022/08/03 21:08:31;;;;;;;9.88;2.30;;;25.10;99.90;;;;;;12406995;28;19926;-85
2022/08/03 21:14:42;;;;;;;3.53;1.50;;;25.00;99.90;;;;;;12401439;28;20057;-86
2022/08/03 21:20:45;;;;;;;4.55;1.90;;;24.90;99.90;;;;;;12404630;28;20078;-86
2022/08/03 21:26:52;;;;;;;10.40;1.83;;;24.80;99.90;;;;;;12421558;28;20398;-86
2022/08/03 21:32:56;;;;;;;7.38;1.98;;;24.70;99.90;;;;;;12400982;28;20187;-86
2022/08/03 21:38:58;;;;;;;8.85;1.90;;;24.70;99.90;;;;;;12418834;28;20046;-86
2022/08/03 21:45:04;;;;;;;5.20;1.80;;;24.70;99.90;;;;;;12406755;28;20049;-86
2022/08/03 21:51:08;;;;;;;7.43;1.95;;;24.60;99.90;;;;;;12414919;28;20493;-86
2022/08/03 21:57:19;;;;;;;4.38;1.85;;;24.60;99.90;;;;;;12414049;28;20681;-86
2022/08/03 22:03:24;;;;;;;8.82;1.98;;;24.60;99.90;;;;;;12403473;28;20045;-85
2022/08/03 22:09:26;;;;;;;9.70;2.17;;;24.60;99.90;;;;;;12397570;28;20513;-85
2022/08/03 22:15:28;;;;;;;4.85;1.92;;;24.40;99.90;;;;;;12411690;28;20053;-86
2022/08/03 22:21:32;;;;;;;11.15;2.00;;;24.20;99.90;;;;;;12421057;28;20112;-86
2022/08/03 22:27:39;;;;;;;11.98;2.35;;;24.10;99.90;;;;;;12403971;28;20076;-86
2022/08/03 22:33:43;;;;;;;9.82;2.17;;;24.10;99.90;;;;;;12401068;28;20107;-85
2022/08/03 22:39:45;;;;;;;8.73;2.10;;;24.00;99.90;;;;;;12396377;28;20054;-85
2022/08/03 22:45:49;;;;;;;13.20;2.65;;;24.10;99.90;;;;;;12411958;28;20135;-85
2022/08/03 22:52:12;;;;;;;7.63;2.22;;;24.00;99.90;;;;;;12403249;28;20398;-86
2022/08/03 22:58:14;;;;;;;10.20;2.13;;;23.90;99.90;;;;;;12414263;28;20049;-86
2022/08/03 23:04:18;;;;;;;9.23;2.03;;;23.70;99.90;;;;;;12409262;28;20050;-86
2022/08/03 23:10:23;;;;;;;11.98;2.75;;;23.70;99.90;;;;;;12399385;28;20075;-85
2022/08/03 23:16:26;;;;;;;14.57;2.25;;;23.70;99.90;;;;;;12405458;28;20057;-86
2022/08/03 23:22:31;;;;;;;9.55;2.58;;;23.70;99.90;;;;;;12410303;28;20085;-85
2022/08/03 23:28:33;;;;;;;13.10;2.65;;;23.50;99.90;;;;;;12411520;28;20049;-85
2022/08/03 23:41:00;;;;;;;18.65;2.63;;;23.50;99.90;;;;;;12420762;28;20038;-86
2022/08/03 23:47:02;;;;;;;10.35;2.55;;;23.50;99.90;;;;;;12421927;28;20097;-87
2022/08/03 23:53:14;;;;;;;11.68;2.30;;;23.70;99.90;;;;;;12421952;28;20137;-85
2022/08/03 23:59:42;;;;;;;12.73;2.17;;;23.70;99.90;;;;;;12419405;28;20057;-85
